createdAt,value
2022-09-01T00:00:02.744Z,0.85
2022-09-01T00:02:31.206Z,0.90
2022-09-01T00:04:58.770Z,1.73
2022-09-01T00:07:30.299Z,1.10
2022-09-01T00:09:58.537Z,1.10
2022-09-01T00:12:26.146Z,0.80
2022-09-01T00:14:53.320Z,1.05
2022-09-01T00:17:20.285Z,0.90
2022-09-01T00:19:47.347Z,1.20
2022-09-01T00:22:14.316Z,1.10
2022-09-01T00:24:41.333Z,1.00
2022-09-01T00:27:08.233Z,1.05
2022-09-01T00:29:36.636Z,1.02
2022-09-01T00:32:04.919Z,1.25
2022-09-01T00:34:31.769Z,1.40
2022-09-01T00:36:58.816Z,0.90
2022-09-01T00:39:25.984Z,1.75
2022-09-01T00:41:53.113Z,0.93
2022-09-01T00:44:29.762Z,1.92
2022-09-01T00:46:59.941Z,1.23
2022-09-01T00:49:35.104Z,1.00
2022-09-01T00:52:30.470Z,1.13
2022-09-01T00:55:02.548Z,1.10
2022-09-01T00:57:29.759Z,1.02
2022-09-01T01:00:05.527Z,1.60
2022-09-01T01:02:32.581Z,1.13
2022-09-01T01:05:00.651Z,1.25
2022-09-01T01:07:29.081Z,1.00
2022-09-01T01:09:56.837Z,1.35
2022-09-01T01:12:23.969Z,1.13
2022-09-01T01:14:51.073Z,0.95
2022-09-01T01:17:22.619Z,1.83
2022-09-01T01:20:13.912Z,1.02
2022-09-01T01:23:03.738Z,1.40
2022-09-01T01:25:38.660Z,1.27
2022-09-01T01:28:09.735Z,0.98
2022-09-01T01:30:39.939Z,1.13
2022-09-01T01:33:07.821Z,1.08
2022-09-01T01:35:35.906Z,1.00
2022-09-01T01:38:06.960Z,0.70
2022-09-01T01:40:35.047Z,1.00
2022-09-01T01:43:02.602Z,1.10
2022-09-01T01:45:30.461Z,0.93
2022-09-01T01:47:57.390Z,1.10
2022-09-01T01:50:33.498Z,0.93
2022-09-01T01:53:02.801Z,1.38
2022-09-01T01:55:31.130Z,1.00
2022-09-01T01:57:59.848Z,0.93
2022-09-01T02:00:32.312Z,0.80
2022-09-01T02:02:59.630Z,1.00
2022-09-01T02:05:32.042Z,0.95
2022-09-01T02:08:04.142Z,0.70
2022-09-01T02:10:34.292Z,1.08
2022-09-01T02:13:07.143Z,0.82
2022-09-01T02:15:42.406Z,0.95
2022-09-01T02:18:11.056Z,0.82
2022-09-01T02:20:37.934Z,1.05
2022-09-01T02:23:10.754Z,1.30
2022-09-01T02:26:14.073Z,0.98
2022-09-01T02:28:36.874Z,1.05
2022-09-01T02:31:06.046Z,0.93
2022-09-01T02:33:33.286Z,1.00
2022-09-01T02:36:03.462Z,1.98
2022-09-01T02:38:31.246Z,1.55
2022-09-01T02:40:59.649Z,1.23
2022-09-01T02:43:28.455Z,1.30
2022-09-01T02:45:59.697Z,1.20
2022-09-01T02:48:38.619Z,1.70
2022-09-01T02:51:08.500Z,1.00
2022-09-01T02:53:36.060Z,0.70
2022-09-01T02:56:09.615Z,0.80
2022-09-01T02:58:45.958Z,1.58
2022-09-01T03:01:18.517Z,1.08
2022-09-01T03:03:45.402Z,1.05
2022-09-01T03:06:12.901Z,1.10
2022-09-01T03:08:39.763Z,1.20
2022-09-01T03:11:12.961Z,1.50
2022-09-01T03:13:41.554Z,1.00
2022-09-01T03:16:09.143Z,1.25
2022-09-01T03:18:36.901Z,0.93
2022-09-01T03:21:05.248Z,1.10
2022-09-01T03:23:33.996Z,1.20
2022-09-01T03:26:01.523Z,1.00
2022-09-01T03:28:28.879Z,0.60
2022-09-01T03:30:58.063Z,0.63
2022-09-01T03:33:26.861Z,0.82
2022-09-01T03:35:55.005Z,0.80
2022-09-01T03:38:24.230Z,0.70
2022-09-01T03:41:01.892Z,0.63
2022-09-01T03:43:35.714Z,0.80
2022-09-01T03:46:03.526Z,0.40
2022-09-01T03:48:32.161Z,0.63
2022-09-01T03:51:02.625Z,0.68
2022-09-01T03:53:35.943Z,0.43
2022-09-01T03:56:04.181Z,0.50
2022-09-01T03:58:31.126Z,0.47
2022-09-01T04:01:02.789Z,0.70
2022-09-01T04:03:32.381Z,0.40
2022-09-01T04:06:00.649Z,0.50
2022-09-01T04:08:33.064Z,0.50
2022-09-01T04:11:24.300Z,0.63
2022-09-01T04:13:51.637Z,3.65
2022-09-01T04:16:48.720Z,2.65
2022-09-01T04:19:21.035Z,2.97
2022-09-01T04:21:53.841Z,2.28
2022-09-01T04:24:23.917Z,2.55
2022-09-01T04:26:52.293Z,3.30
2022-09-01T04:29:27.190Z,3.15
2022-09-01T04:32:05.512Z,2.80
2022-09-01T04:34:38.587Z,3.17
2022-09-01T04:37:14.920Z,2.53
2022-09-01T04:39:53.674Z,1.98
2022-09-01T04:42:24.240Z,1.58
2022-09-01T04:44:53.685Z,1.17
2022-09-01T04:47:36.285Z,1.00
2022-09-01T04:52:32.035Z,0.63
2022-09-01T04:54:58.874Z,0.85
2022-09-01T04:57:27.693Z,0.93
2022-09-01T04:59:56.893Z,0.93
2022-09-01T05:02:27.180Z,0.90
2022-09-01T05:04:55.122Z,0.88
2022-09-01T05:07:23.642Z,0.90
2022-09-01T05:09:58.063Z,0.90
2022-09-01T05:12:27.869Z,0.60
2022-09-01T05:14:55.924Z,0.93
2022-09-01T05:17:26.001Z,0.63
2022-09-01T05:19:52.877Z,0.80
2022-09-01T05:22:22.371Z,0.52
2022-09-01T05:24:51.455Z,0.95
2022-09-01T05:27:22.931Z,0.80
2022-09-01T05:29:50.486Z,0.85
2022-09-01T05:32:17.536Z,0.82
2022-09-01T05:34:45.273Z,0.60
2022-09-01T05:37:16.051Z,0.85
2022-09-01T05:39:43.087Z,0.77
2022-09-01T05:42:10.047Z,0.90
2022-09-01T05:44:44.033Z,0.82
2022-09-01T05:47:20.644Z,0.65
2022-09-01T05:49:49.879Z,0.73
2022-09-01T05:52:17.089Z,0.70
2022-09-01T05:54:46.018Z,0.73
2022-09-01T05:57:33.376Z,1.02
2022-09-01T06:00:00.591Z,1.10
2022-09-01T06:02:27.896Z,1.33
2022-09-01T06:04:56.967Z,0.90
2022-09-01T06:07:25.559Z,0.60
2022-09-01T06:09:54.958Z,0.57
2022-09-01T06:12:23.999Z,0.68
2022-09-01T06:14:53.646Z,1.90
2022-09-01T06:17:24.952Z,0.93
2022-09-01T06:19:56.839Z,0.82
2022-09-01T06:22:26.291Z,0.63
2022-09-01T06:24:58.271Z,0.70
2022-09-01T06:27:29.419Z,0.68
2022-09-01T06:29:58.434Z,0.75
2022-09-01T06:32:27.043Z,0.90
2022-09-01T06:34:54.195Z,0.80
2022-09-01T06:37:22.481Z,0.88
2022-09-01T06:39:50.364Z,0.82
2022-09-01T06:42:17.698Z,0.98
2022-09-01T06:44:46.078Z,0.88
2022-09-01T06:47:13.138Z,0.63
2022-09-01T06:49:40.911Z,0.80
2022-09-01T06:52:08.173Z,0.73
2022-09-01T06:54:36.472Z,0.80
2022-09-01T06:59:52.381Z,0.90
2022-09-01T07:02:20.179Z,0.75
2022-09-01T07:04:53.538Z,0.60
2022-09-01T07:10:23.380Z,0.98
2022-09-01T07:13:11.609Z,1.00
2022-09-01T07:18:31.333Z,1.83
2022-09-01T07:21:06.940Z,2.50
2022-09-01T07:24:08.510Z,3.78
2022-09-01T07:26:35.778Z,2.33
2022-09-01T07:29:06.187Z,2.40
2022-09-01T07:34:46.293Z,2.90
2022-09-01T07:45:47.162Z,4.10
2022-09-01T07:51:35.495Z,3.17
2022-09-01T07:53:54.722Z,3.38
2022-09-01T07:56:23.718Z,2.47
2022-09-01T07:58:51.967Z,2.50
2022-09-01T08:01:23.285Z,2.63
2022-09-01T08:03:54.099Z,2.65
2022-09-01T08:06:24.930Z,2.55
2022-09-01T08:08:57.507Z,2.17
2022-09-01T08:11:58.296Z,2.15
2022-09-01T08:14:18.184Z,2.33
2022-09-01T08:16:53.174Z,1.60
2022-09-01T08:19:20.562Z,1.42
2022-09-01T08:21:47.497Z,1.50
2022-09-01T08:24:14.384Z,1.30
2022-09-01T08:26:41.421Z,0.93
2022-09-01T08:29:08.337Z,0.90
2022-09-01T08:31:36.197Z,0.90
2022-09-01T08:34:05.473Z,0.90
2022-09-01T08:36:32.903Z,1.52
2022-09-01T08:38:59.796Z,0.90
2022-09-01T08:41:35.225Z,0.50
2022-09-01T08:44:29.601Z,0.70
2022-09-01T08:47:08.272Z,0.55
2022-09-01T08:49:46.064Z,1.40
2022-09-01T08:52:41.397Z,1.30
2022-09-01T08:55:40.231Z,0.70
2022-09-01T08:58:09.836Z,0.93
2022-09-01T09:00:45.964Z,0.60
2022-09-01T09:03:26.053Z,1.00
2022-09-01T09:06:07.109Z,0.60
2022-09-01T09:08:56.701Z,0.77
2022-09-01T09:11:59.025Z,0.90
2022-09-01T09:14:44.185Z,0.60
2022-09-01T09:17:12.156Z,0.65
2022-09-01T09:19:44.464Z,0.70
2022-09-01T09:22:17.687Z,0.60
2022-09-01T09:24:52.640Z,0.85
2022-09-01T09:27:23.924Z,0.65
2022-09-01T09:29:56.903Z,1.23
2022-09-01T09:33:11.687Z,0.70
2022-09-01T09:35:48.773Z,0.60
2022-09-01T09:38:29.205Z,0.95
2022-09-01T09:41:25.434Z,0.45
2022-09-01T09:44:13.277Z,0.60
2022-09-01T09:46:43.732Z,0.63
2022-09-01T09:49:36.150Z,0.70
2022-09-01T09:52:18.347Z,1.00
2022-09-01T09:55:07.378Z,0.60
2022-09-01T09:57:41.575Z,1.60
2022-09-01T10:00:17.930Z,0.88
2022-09-01T10:05:39.730Z,1.23
2022-09-01T10:08:27.307Z,0.52
2022-09-01T10:10:57.955Z,0.70
2022-09-01T10:13:29.174Z,0.32
2022-09-01T10:16:03.790Z,0.60
2022-09-01T10:18:41.492Z,0.55
2022-09-01T10:21:10.024Z,0.40
2022-09-01T10:23:38.817Z,0.60
2022-09-01T10:26:25.079Z,1.30
2022-09-01T10:28:59.211Z,0.90
2022-09-01T10:31:32.118Z,0.98
2022-09-01T10:34:02.100Z,0.80
2022-09-01T10:36:31.018Z,2.90
2022-09-01T10:39:04.396Z,1.25
2022-09-01T10:41:44.347Z,1.20
2022-09-01T10:44:21.334Z,1.67
2022-09-01T10:46:52.286Z,2.03
2022-09-01T10:49:46.369Z,3.03
2022-09-01T10:52:43.115Z,3.63
2022-09-01T10:55:24.796Z,4.25
2022-09-01T10:58:09.539Z,2.53
2022-09-01T11:01:11.564Z,1.73
2022-09-01T11:03:53.595Z,1.15
2022-09-01T11:06:42.853Z,0.93
2022-09-01T11:09:45.753Z,0.60
2022-09-01T11:12:30.025Z,1.15
2022-09-01T11:15:06.985Z,0.70
2022-09-01T11:17:37.968Z,1.42
2022-09-01T11:20:25.024Z,1.75
2022-09-01T11:22:57.640Z,0.68
2022-09-01T11:25:48.570Z,0.93
2022-09-01T11:28:41.897Z,0.45
2022-09-01T11:31:09.056Z,0.88
2022-09-01T11:34:02.187Z,0.65
2022-09-01T11:36:48.410Z,0.70
2022-09-01T11:39:19.205Z,0.60
2022-09-01T11:42:20.001Z,0.47
2022-09-01T11:44:57.681Z,0.40
2022-09-01T11:47:30.618Z,1.00
2022-09-01T11:50:03.649Z,0.38
2022-09-01T11:52:34.266Z,0.22
2022-09-01T11:57:31.373Z,0.30
2022-09-01T12:00:01.121Z,0.38
2022-09-01T12:02:42.465Z,0.60
2022-09-01T12:05:29.915Z,0.68
2022-09-01T12:07:58.005Z,0.40
2022-09-01T12:10:32.729Z,0.40
2022-09-01T12:13:03.838Z,0.40
2022-09-01T12:15:30.966Z,0.45
2022-09-01T12:18:22.029Z,2.97
2022-09-01T12:20:50.849Z,0.40
2022-09-01T12:23:25.973Z,0.52
2022-09-01T12:25:59.248Z,0.60
2022-09-01T12:28:32.322Z,0.47
2022-09-01T12:31:07.656Z,0.70
2022-09-01T12:33:35.542Z,1.23
2022-09-01T12:36:32.122Z,0.55
2022-09-01T12:39:36.760Z,0.52
2022-09-01T12:42:08.162Z,0.57
2022-09-01T12:44:38.153Z,0.57
2022-09-01T12:47:08.452Z,0.20
2022-09-01T12:49:50.345Z,0.17
2022-09-01T12:52:27.595Z,0.35
2022-09-01T12:55:03.676Z,1.00
2022-09-01T12:57:39.999Z,0.30
2022-09-01T13:00:12.597Z,0.50
2022-09-01T13:02:41.166Z,0.40
2022-09-01T13:05:30.667Z,0.20
2022-09-01T13:08:00.979Z,0.28
2022-09-01T13:10:33.126Z,0.20
2022-09-01T13:13:01.990Z,0.10
2022-09-01T13:15:28.915Z,0.30
2022-09-01T13:17:55.771Z,0.45
2022-09-01T13:20:22.843Z,0.43
2022-09-01T13:22:50.460Z,0.10
2022-09-01T13:25:20.411Z,0.10
2022-09-01T13:27:48.541Z,0.20
2022-09-01T13:30:21.874Z,0.30
2022-09-01T13:35:36.448Z,0.47
2022-09-01T13:38:03.321Z,0.77
2022-09-01T13:40:30.297Z,0.45
2022-09-01T13:42:57.355Z,0.43
2022-09-01T13:45:25.843Z,0.45
2022-09-01T13:53:27.800Z,0.32
2022-09-01T13:55:54.828Z,0.38
2022-09-01T13:58:21.774Z,0.30
2022-09-01T14:00:50.951Z,0.25
2022-09-01T14:03:23.213Z,0.40
2022-09-01T14:05:50.528Z,0.30
2022-09-01T14:08:21.050Z,0.98
2022-09-01T14:10:50.962Z,0.30
2022-09-01T14:13:20.256Z,0.20
2022-09-01T14:15:48.397Z,0.20
2022-09-01T14:18:16.464Z,0.50
2022-09-01T14:20:46.207Z,0.20
2022-09-01T14:23:14.791Z,0.10
2022-09-01T14:25:48.342Z,0.40
2022-09-01T14:28:16.671Z,0.40
2022-09-01T14:30:48.954Z,0.20
2022-09-01T14:33:16.716Z,0.32
2022-09-01T14:35:46.698Z,0.20
2022-09-01T14:38:14.921Z,0.30
2022-09-01T14:40:43.250Z,0.20
2022-09-01T14:43:14.401Z,0.30
2022-09-01T14:45:46.001Z,0.20
2022-09-01T14:48:15.115Z,0.28
2022-09-01T14:50:44.434Z,0.22
2022-09-01T14:53:12.577Z,0.25
2022-09-01T14:55:43.596Z,0.30
2022-09-01T14:58:10.942Z,0.10
2022-09-01T15:00:41.048Z,0.40
2022-09-01T15:03:09.775Z,0.22
2022-09-01T15:05:39.449Z,0.30
2022-09-01T15:08:08.539Z,0.40
2022-09-01T15:10:36.619Z,0.57
2022-09-01T15:13:04.479Z,0.30
2022-09-01T15:15:32.607Z,0.20
2022-09-01T15:18:00.957Z,0.63
2022-09-01T15:20:47.078Z,0.30
2022-09-01T15:23:19.013Z,0.20
2022-09-01T15:25:46.393Z,0.45
2022-09-01T15:28:13.730Z,0.15
2022-09-01T15:30:41.386Z,0.20
2022-09-01T15:33:14.673Z,0.20
2022-09-01T15:35:43.063Z,0.20
2022-09-01T15:38:10.456Z,0.28
2022-09-01T15:40:42.965Z,0.20
2022-09-01T15:43:11.619Z,0.20
2022-09-01T15:45:39.301Z,0.15
2022-09-01T15:48:06.289Z,0.28
2022-09-01T15:50:33.427Z,0.30
2022-09-01T15:53:05.973Z,0.30
2022-09-01T15:55:42.935Z,0.20
2022-09-01T15:58:12.933Z,0.15
2022-09-01T16:00:41.177Z,0.20
2022-09-01T16:03:08.928Z,0.20
2022-09-01T16:05:37.759Z,0.43
2022-09-01T16:08:08.367Z,0.40
2022-09-01T16:13:04.783Z,0.40
2022-09-01T16:15:32.530Z,0.30
2022-09-01T16:18:05.479Z,0.22
